Time;durP1;ratioP1;P1;durP2;ratioP2;P2;SDS_P1;SDS_P2;PMS_P1;PMS_P2;Temp;Humidity;BMP_temperature;BMP_pressure;BME280_temperature;BME280_humidity;BME280_pressure;Samples;Min_cycle;Max_cycle;Signal;HPM_P1;HPM_P2
2022/07/13 00:02:19;;;;;;;0.50;0.20;;;12.10;99.90;;;;;;5018745;28;20037;-67
2022/07/13 00:04:46;;;;;;;2.65;0.20;;;12.20;99.90;;;;;;5018272;28;20006;-66
2022/07/13 00:07:13;;;;;;;2.08;0.40;;;12.10;99.90;;;;;;5027070;28;20068;-67
2022/07/13 00:09:40;;;;;;;0.90;0.28;;;12.20;99.90;;;;;;5038727;28;20156;-67
2022/07/13 00:12:08;;;;;;;4.22;0.40;;;12.20;99.90;;;;;;5029709;28;20025;-68
2022/07/13 00:14:35;;;;;;;1.58;0.20;;;12.20;99.90;;;;;;5018171;28;20030;-67
2022/07/13 00:17:02;;;;;;;0.85;0.30;;;12.30;99.90;;;;;;5027502;28;20014;-66
2022/07/13 00:19:29;;;;;;;1.50;0.38;;;12.40;99.90;;;;;;5038242;28;20006;-68
2022/07/13 00:21:57;;;;;;;1.48;0.30;;;12.60;99.90;;;;;;5031394;28;20015;-66
2022/07/13 00:24:24;;;;;;;1.02;0.30;;;12.60;99.90;;;;;;5018523;28;20010;-66
2022/07/13 00:26:52;;;;;;;2.28;0.50;;;12.60;99.90;;;;;;5021400;28;20026;-66
2022/07/13 00:29:20;;;;;;;0.57;0.20;;;12.60;99.90;;;;;;5018488;28;20017;-66
2022/07/13 00:31:47;;;;;;;1.08;0.20;;;12.60;99.90;;;;;;5031880;28;20014;-66
2022/07/13 00:34:14;;;;;;;1.88;0.20;;;12.70;99.90;;;;;;5022815;28;20029;-68
2022/07/13 00:36:41;;;;;;;0.82;0.20;;;12.70;99.90;;;;;;5022795;28;20045;-67
2022/07/13 00:39:09;;;;;;;1.65;0.30;;;12.70;99.90;;;;;;5037780;28;20119;-68
2022/07/13 00:41:36;;;;;;;2.17;0.40;;;12.70;99.90;;;;;;5034031;28;20015;-67
2022/07/13 00:44:10;;;;;;;1.50;0.60;;;12.80;99.90;;;;;;5018350;28;20014;-68
2022/07/13 00:46:39;;;;;;;4.72;0.30;;;12.90;99.90;;;;;;5018697;28;20096;-67
2022/07/13 00:49:10;;;;;;;2.15;0.20;;;13.00;99.90;;;;;;5018198;28;20033;-67
2022/07/13 00:51:38;;;;;;;1.52;0.45;;;13.10;99.90;;;;;;5018666;28;20011;-66
2022/07/13 00:54:06;;;;;;;1.77;0.20;;;12.90;99.90;;;;;;5018111;28;20037;-66
2022/07/13 00:56:33;;;;;;;1.83;0.28;;;12.90;99.90;;;;;;5018175;28;20022;-66
2022/07/13 00:59:01;;;;;;;2.20;0.50;;;12.90;99.90;;;;;;5018334;28;20074;-66
2022/07/13 01:01:28;;;;;;;1.80;0.50;;;13.10;99.90;;;;;;5022121;28;20050;-66
2022/07/13 01:03:56;;;;;;;1.10;0.20;;;13.30;99.90;;;;;;5022239;28;20087;-66
2022/07/13 01:06:23;;;;;;;2.17;0.22;;;13.20;99.90;;;;;;5038909;28;20026;-66
2022/07/13 01:08:53;;;;;;;4.65;0.47;;;13.40;99.90;;;;;;5041572;28;20038;-67
2022/07/13 01:11:21;;;;;;;2.75;0.20;;;13.50;99.90;;;;;;5039765;28;20093;-66
2022/07/13 01:13:49;;;;;;;1.55;0.65;;;13.60;99.90;;;;;;5021785;28;20048;-66
2022/07/13 01:16:16;;;;;;;1.05;0.30;;;13.50;99.90;;;;;;5025078;28;20022;-66
2022/07/13 01:18:44;;;;;;;2.40;0.40;;;13.70;99.90;;;;;;5041534;28;20010;-66
2022/07/13 01:21:13;;;;;;;1.45;0.20;;;13.80;99.90;;;;;;5040095;28;20078;-66
2022/07/13 01:23:41;;;;;;;2.75;0.30;;;13.70;99.90;;;;;;5025070;28;20018;-66
2022/07/13 01:26:10;;;;;;;4.70;0.50;;;13.80;99.90;;;;;;5033029;28;20022;-67
2022/07/13 01:28:38;;;;;;;1.45;0.32;;;13.90;99.90;;;;;;5024372;28;20030;-67
2022/07/13 01:31:05;;;;;;;2.30;0.40;;;14.00;99.90;;;;;;5024300;28;20050;-67
2022/07/13 01:33:33;;;;;;;3.25;0.40;;;14.00;99.90;;;;;;5040741;28;20019;-67
2022/07/13 01:36:00;;;;;;;0.88;0.20;;;13.90;99.90;;;;;;5040575;28;20041;-67
2022/07/13 01:38:28;;;;;;;1.92;0.22;;;13.60;99.90;;;;;;5041206;28;20010;-67
2022/07/13 01:40:56;;;;;;;1.60;0.20;;;13.60;99.90;;;;;;5041165;28;20018;-67
2022/07/13 01:43:30;;;;;;;2.47;0.40;;;13.50;99.90;;;;;;5040040;28;20016;-67
2022/07/13 01:45:57;;;;;;;1.30;0.30;;;13.60;99.90;;;;;;5041077;28;20010;-67
2022/07/13 01:48:24;;;;;;;1.88;0.20;;;13.90;99.90;;;;;;5036527;28;20076;-67
2022/07/13 01:50:51;;;;;;;2.08;0.10;;;14.10;99.90;;;;;;5039814;28;20037;-68
2022/07/13 01:53:18;;;;;;;3.03;0.43;;;14.30;99.90;;;;;;5040316;28;20014;-67
2022/07/13 01:55:46;;;;;;;2.17;0.38;;;14.00;99.90;;;;;;5040964;28;20033;-67
2022/07/13 01:58:13;;;;;;;1.17;0.30;;;13.80;99.90;;;;;;5039701;28;20037;-67
2022/07/13 02:00:40;;;;;;;1.42;0.60;;;13.60;99.90;;;;;;5040719;28;20053;-67
2022/07/13 02:03:07;;;;;;;3.05;0.40;;;13.50;99.90;;;;;;5023792;28;20034;-67
2022/07/13 02:05:35;;;;;;;5.57;0.50;;;13.50;99.90;;;;;;5021074;28;20002;-67
2022/07/13 02:08:04;;;;;;;2.97;0.52;;;13.60;99.90;;;;;;5036197;28;20060;-67
2022/07/13 02:10:37;;;;;;;2.65;0.77;;;13.70;99.90;;;;;;5040620;28;20018;-67
2022/07/13 02:13:12;;;;;;;1.73;0.20;;;13.70;99.90;;;;;;5037527;28;20022;-67
2022/07/13 02:15:40;;;;;;;5.25;0.57;;;13.70;99.90;;;;;;5040576;28;20014;-67
2022/07/13 02:18:08;;;;;;;2.10;0.40;;;13.60;99.90;;;;;;5028785;28;20018;-68
2022/07/13 02:20:36;;;;;;;7.70;0.80;;;13.60;99.90;;;;;;5040475;28;20021;-68
2022/07/13 02:23:03;;;;;;;3.03;0.75;;;13.60;99.90;;;;;;5032387;28;20025;-68
2022/07/13 02:25:32;;;;;;;3.70;0.40;;;13.40;99.90;;;;;;5020664;28;20071;-68
2022/07/13 02:27:59;;;;;;;4.68;0.80;;;13.40;99.90;;;;;;5020908;28;20050;-67
2022/07/13 02:30:26;;;;;;;2.35;0.50;;;13.40;99.90;;;;;;5020558;28;20045;-68
2022/07/13 02:32:54;;;;;;;4.82;0.50;;;13.40;99.90;;;;;;5033916;28;20037;-67
2022/07/13 02:35:21;;;;;;;4.32;0.70;;;13.50;99.90;;;;;;5039966;28;20009;-67
2022/07/13 02:37:48;;;;;;;2.95;0.38;;;13.60;99.90;;;;;;5025923;28;20046;-67
2022/07/13 02:40:16;;;;;;;1.75;0.47;;;13.80;99.90;;;;;;5020400;28;20057;-67
2022/07/13 02:42:44;;;;;;;3.15;0.35;;;14.00;99.90;;;;;;5031801;28;20029;-67
2022/07/13 02:45:11;;;;;;;1.23;0.40;;;14.00;99.90;;;;;;5035993;28;20022;-67
2022/07/13 02:47:38;;;;;;;3.25;0.65;;;13.70;99.90;;;;;;5037737;28;20041;-67
2022/07/13 02:50:06;;;;;;;2.65;0.90;;;13.70;99.90;;;;;;5039595;28;20034;-67
2022/07/13 02:52:33;;;;;;;4.32;0.52;;;13.90;99.90;;;;;;5038994;28;20037;-67
2022/07/13 02:55:01;;;;;;;4.60;1.00;;;13.90;99.90;;;;;;5039676;28;20033;-67
2022/07/13 02:57:28;;;;;;;4.35;0.75;;;14.00;99.90;;;;;;5028369;28;20030;-67
2022/07/13 02:59:55;;;;;;;3.40;0.47;;;14.50;99.90;;;;;;5020259;28;20014;-67
2022/07/13 03:02:22;;;;;;;4.95;0.73;;;14.60;99.90;;;;;;5023383;28;20010;-67
2022/07/13 03:04:50;;;;;;;1.48;0.30;;;14.60;99.90;;;;;;5038793;28;20018;-67
2022/07/13 03:07:17;;;;;;;7.68;1.33;;;14.30;99.90;;;;;;5029514;28;20121;-67
2022/07/13 03:09:45;;;;;;;2.05;0.60;;;14.10;99.90;;;;;;5019814;28;20014;-67
2022/07/13 03:12:12;;;;;;;1.15;0.70;;;14.10;99.90;;;;;;5024594;28;20014;-66
2022/07/13 03:14:39;;;;;;;0.77;0.20;;;14.00;99.90;;;;;;5039543;28;20014;-66
2022/07/13 03:17:07;;;;;;;1.10;0.47;;;13.90;99.90;;;;;;5033871;28;20014;-67
2022/07/13 03:19:34;;;;;;;2.33;0.63;;;13.80;99.90;;;;;;5039211;28;20017;-67
2022/07/13 03:22:04;;;;;;;3.63;0.68;;;13.70;99.90;;;;;;5030919;28;20033;-67
2022/07/13 03:24:31;;;;;;;1.65;0.38;;;13.60;99.90;;;;;;5019136;28;20010;-67
2022/07/13 03:26:59;;;;;;;1.30;0.20;;;13.60;99.90;;;;;;5028207;28;20010;-67
2022/07/13 03:29:26;;;;;;;0.90;0.25;;;13.60;99.90;;;;;;5038470;28;20057;-66
2022/07/13 03:31:53;;;;;;;0.40;0.20;;;13.70;99.90;;;;;;5031970;28;20033;-66
2022/07/13 03:34:21;;;;;;;0.52;0.30;;;13.80;99.90;;;;;;5019210;28;20079;-67
2022/07/13 03:36:48;;;;;;;0.85;0.40;;;13.80;99.90;;;;;;5024051;28;20006;-67
2022/07/13 03:39:15;;;;;;;0.63;0.20;;;13.90;99.90;;;;;;5036667;28;20045;-67
2022/07/13 03:41:42;;;;;;;0.90;0.28;;;13.90;99.90;;;;;;5035121;28;20010;-66
2022/07/13 03:44:12;;;;;;;0.63;0.40;;;13.90;99.90;;;;;;5039093;28;20010;-67
2022/07/13 03:46:40;;;;;;;1.27;0.32;;;13.90;99.90;;;;;;5033500;28;20054;-66
2022/07/13 03:49:08;;;;;;;2.60;0.60;;;13.90;99.90;;;;;;5018998;28;20114;-67
2022/07/13 03:51:38;;;;;;;2.15;0.30;;;13.90;99.90;;;;;;5021864;28;20082;-67
2022/07/13 03:54:08;;;;;;;1.40;0.22;;;14.00;99.90;;;;;;5038287;28;20064;-67
2022/07/13 03:56:35;;;;;;;1.23;0.20;;;14.00;99.90;;;;;;5036527;28;20022;-67
2022/07/13 03:59:02;;;;;;;0.63;0.20;;;14.00;99.90;;;;;;5038686;28;20014;-66
2022/07/13 04:01:29;;;;;;;1.00;0.40;;;14.00;99.90;;;;;;5033709;28;20046;-66
2022/07/13 04:03:58;;;;;;;2.40;0.30;;;13.90;99.90;;;;;;5018960;28;20009;-66
2022/07/13 04:06:26;;;;;;;1.77;0.55;;;13.90;99.90;;;;;;5024588;28;20021;-67
2022/07/13 04:08:53;;;;;;;0.65;0.30;;;13.70;99.90;;;;;;5038399;28;20026;-67
2022/07/13 04:11:21;;;;;;;1.23;0.20;;;13.70;99.90;;;;;;5030458;28;20018;-66
2022/07/13 04:13:48;;;;;;;2.28;0.30;;;13.60;99.90;;;;;;5019126;28;20029;-66
2022/07/13 04:16:15;;;;;;;2.03;0.38;;;13.60;99.90;;;;;;5018917;28;20042;-66
2022/07/13 04:18:42;;;;;;;1.08;0.30;;;13.60;99.90;;;;;;5037917;28;20010;-67
2022/07/13 04:21:11;;;;;;;0.82;0.10;;;13.60;99.90;;;;;;5036981;28;20006;-67
2022/07/13 04:23:39;;;;;;;0.50;0.30;;;13.50;99.90;;;;;;5032564;28;20030;-67
2022/07/13 04:26:06;;;;;;;3.85;0.30;;;13.60;99.90;;;;;;5020027;28;20025;-66
2022/07/13 04:28:33;;;;;;;1.17;0.30;;;13.60;99.90;;;;;;5038056;28;20033;-66
2022/07/13 04:31:01;;;;;;;0.60;0.35;;;13.60;99.90;;;;;;5038098;28;20022;-66
2022/07/13 04:33:28;;;;;;;1.10;0.30;;;13.60;99.90;;;;;;5036276;28;20098;-66
2022/07/13 04:35:55;;;;;;;1.77;0.30;;;13.60;99.90;;;;;;5031860;28;20037;-67
2022/07/13 04:38:22;;;;;;;1.33;0.47;;;13.60;99.90;;;;;;5037283;28;20022;-67
2022/07/13 04:40:49;;;;;;;1.08;0.35;;;13.70;99.90;;;;;;5038074;28;20045;-67
2022/07/13 04:43:17;;;;;;;0.50;0.20;;;13.70;99.90;;;;;;5019706;28;20023;-67
2022/07/13 04:45:44;;;;;;;2.03;0.30;;;13.70;99.90;;;;;;5018550;28;20015;-68
2022/07/13 04:48:11;;;;;;;0.43;0.25;;;13.70;99.90;;;;;;5018685;28;20110;-67
2022/07/13 04:50:38;;;;;;;0.40;0.20;;;13.80;99.90;;;;;;5017585;28;20018;-67
2022/07/13 04:53:06;;;;;;;0.85;0.30;;;13.80;99.90;;;;;;5018292;28;20014;-67
2022/07/13 04:55:33;;;;;;;1.15;0.40;;;13.70;99.90;;;;;;5018214;28;20011;-68
2022/07/13 04:58:00;;;;;;;1.13;0.30;;;13.70;99.90;;;;;;5017959;28;20018;-67
2022/07/13 05:00:27;;;;;;;1.65;0.30;;;13.70;99.90;;;;;;5019125;28;20045;-67
2022/07/13 05:02:54;;;;;;;1.00;0.40;;;13.60;99.90;;;;;;5020492;28;20014;-67
2022/07/13 05:05:22;;;;;;;2.25;0.30;;;13.60;99.90;;;;;;5021522;28;20045;-67
2022/07/13 05:07:49;;;;;;;0.55;0.13;;;13.50;99.90;;;;;;5018988;28;20050;-67
2022/07/13 05:10:16;;;;;;;1.83;0.30;;;13.50;99.90;;;;;;5018061;28;20014;-67
2022/07/13 05:12:43;;;;;;;1.55;0.28;;;13.50;99.90;;;;;;5025821;28;20037;-67
2022/07/13 05:15:12;;;;;;;0.95;0.30;;;13.40;99.90;;;;;;5034337;28;20027;-67
2022/07/13 05:17:39;;;;;;;1.02;0.30;;;13.40;99.90;;;;;;5030804;28;20037;-67
2022/07/13 05:20:07;;;;;;;0.90;0.40;;;13.40;99.90;;;;;;5037474;28;20018;-67
2022/07/13 05:22:35;;;;;;;0.47;0.30;;;13.40;99.90;;;;;;5024790;28;20018;-68
2022/07/13 05:25:03;;;;;;;0.98;0.40;;;13.40;99.90;;;;;;5017996;28;20023;-67
2022/07/13 05:27:30;;;;;;;0.65;0.30;;;13.40;99.90;;;;;;5030753;28;20026;-68
2022/07/13 05:29:57;;;;;;;1.90;0.30;;;13.40;99.90;;;;;;5037546;28;20041;-67
2022/07/13 05:32:24;;;;;;;0.63;0.22;;;13.40;99.90;;;;;;5035906;28;20051;-67
2022/07/13 05:34:52;;;;;;;2.00;0.45;;;13.40;99.90;;;;;;5037798;28;20010;-68
2022/07/13 05:37:19;;;;;;;3.53;0.30;;;13.40;99.90;;;;;;5036788;28;20018;-67
2022/07/13 05:39:47;;;;;;;1.50;0.30;;;13.40;99.90;;;;;;5036701;28;20111;-68
2022/07/13 05:42:14;;;;;;;0.85;0.60;;;13.40;99.90;;;;;;5035961;28;20022;-67
2022/07/13 05:44:41;;;;;;;1.65;0.40;;;13.30;99.90;;;;;;5037544;28;20320;-67
2022/07/13 05:47:09;;;;;;;1.67;0.30;;;13.30;99.90;;;;;;5028109;28;20034;-67
2022/07/13 05:49:36;;;;;;;0.85;0.38;;;13.30;99.90;;;;;;5021334;28;20042;-67
2022/07/13 05:52:03;;;;;;;1.83;0.40;;;13.30;99.90;;;;;;5027557;28;20026;-67
2022/07/13 05:54:31;;;;;;;1.80;0.40;;;13.30;99.90;;;;;;5041172;28;20109;-67
2022/07/13 05:56:58;;;;;;;1.20;0.30;;;13.30;99.90;;;;;;5021000;28;20022;-67
2022/07/13 05:59:25;;;;;;;0.60;0.30;;;13.20;99.90;;;;;;5030160;28;20026;-67
2022/07/13 06:01:53;;;;;;;0.70;0.30;;;13.20;99.90;;;;;;5023256;28;20002;-67
2022/07/13 06:04:21;;;;;;;0.70;0.30;;;13.20;99.90;;;;;;5020990;28;20042;-67
2022/07/13 06:06:49;;;;;;;1.23;0.40;;;13.10;99.90;;;;;;5023600;28;20006;-69
2022/07/13 06:09:16;;;;;;;1.73;0.40;;;13.00;99.90;;;;;;5036556;28;20025;-67
2022/07/13 06:11:46;;;;;;;0.77;0.30;;;13.00;99.90;;;;;;5034020;28;20024;-67
2022/07/13 06:14:14;;;;;;;2.10;0.35;;;12.90;99.90;;;;;;5040547;28;20017;-67
2022/07/13 06:16:41;;;;;;;1.60;0.20;;;12.90;99.90;;;;;;5035584;28;20022;-67
2022/07/13 06:19:08;;;;;;;1.20;0.50;;;12.80;99.90;;;;;;5020307;28;20021;-68
2022/07/13 06:21:35;;;;;;;1.55;0.22;;;12.80;99.90;;;;;;5024347;28;20069;-67
2022/07/13 06:24:02;;;;;;;1.00;0.30;;;12.80;99.90;;;;;;5040507;28;20025;-67
2022/07/13 06:26:31;;;;;;;1.13;0.43;;;12.70;99.90;;;;;;5033424;28;20007;-67
2022/07/13 06:28:58;;;;;;;1.45;0.28;;;12.60;99.90;;;;;;5020196;28;20018;-67
2022/07/13 06:31:25;;;;;;;2.25;0.40;;;12.60;99.90;;;;;;5021638;28;20109;-68
2022/07/13 06:33:52;;;;;;;1.00;0.40;;;12.70;99.90;;;;;;5040378;28;20018;-67
2022/07/13 06:36:20;;;;;;;2.55;1.25;;;12.60;99.90;;;;;;5038277;28;20101;-68
2022/07/13 06:38:48;;;;;;;1.50;0.70;;;12.60;99.90;;;;;;5040246;28;20018;-68
2022/07/13 06:41:15;;;;;;;1.70;0.40;;;12.70;99.90;;;;;;5038489;28;20018;-68
2022/07/13 06:43:43;;;;;;;0.60;0.40;;;12.70;99.90;;;;;;5039905;28;20033;-68
2022/07/13 06:46:10;;;;;;;0.40;0.40;;;12.70;99.90;;;;;;5038842;28;20035;-67
2022/07/13 06:48:37;;;;;;;0.77;0.40;;;12.70;99.90;;;;;;5039980;28;20029;-68
2022/07/13 06:51:05;;;;;;;0.40;0.30;;;12.70;99.90;;;;;;5039259;28;20025;-67
2022/07/13 06:53:33;;;;;;;1.42;0.60;;;12.70;99.90;;;;;;5033130;28;20034;-67
2022/07/13 06:56:01;;;;;;;0.40;0.25;;;12.70;99.90;;;;;;5019646;28;20036;-68
2022/07/13 06:58:31;;;;;;;1.70;0.85;;;12.70;99.90;;;;;;5038803;28;20010;-68
2022/07/13 07:00:58;;;;;;;2.70;1.80;;;12.70;99.90;;;;;;5037041;28;20101;-68
2022/07/13 07:03:26;;;;;;;0.57;0.30;;;12.80;99.90;;;;;;5036094;28;20041;-68
2022/07/13 07:05:53;;;;;;;1.45;0.63;;;12.80;99.90;;;;;;5039623;28;20029;-67
2022/07/13 07:08:20;;;;;;;1.50;1.00;;;12.70;99.90;;;;;;5021320;28;20034;-67
2022/07/13 07:10:48;;;;;;;0.75;0.28;;;12.70;99.90;;;;;;5019189;28;20019;-67
2022/07/13 07:13:15;;;;;;;0.35;0.28;;;12.60;99.90;;;;;;5022523;28;20030;-67
2022/07/13 07:15:43;;;;;;;0.98;0.30;;;12.60;99.90;;;;;;5039611;28;20013;-67
2022/07/13 07:18:12;;;;;;;0.35;0.20;;;12.60;99.90;;;;;;5021656;28;20019;-67
2022/07/13 07:20:39;;;;;;;2.33;0.30;;;12.60;99.90;;;;;;5019486;28;20030;-68
2022/07/13 07:23:07;;;;;;;0.63;0.38;;;12.60;99.90;;;;;;5034646;28;20044;-66
2022/07/13 07:25:34;;;;;;;0.88;0.40;;;12.60;99.90;;;;;;5038568;28;20010;-68
2022/07/13 07:28:02;;;;;;;2.70;1.63;;;12.50;99.90;;;;;;5020213;28;20030;-67
2022/07/13 07:30:29;;;;;;;0.50;0.32;;;12.50;99.90;;;;;;5018965;28;20075;-66
2022/07/13 07:32:56;;;;;;;2.58;1.25;;;12.50;99.90;;;;;;5036255;28;20045;-66
2022/07/13 07:35:24;;;;;;;2.47;1.90;;;12.50;99.90;;;;;;5033719;28;20017;-66
2022/07/13 07:37:51;;;;;;;1.95;1.50;;;12.50;99.90;;;;;;5024548;28;20066;-67
2022/07/13 07:40:18;;;;;;;2.78;1.80;;;12.50;99.90;;;;;;5018923;28;20337;-67
2022/07/13 07:42:45;;;;;;;2.83;1.70;;;12.50;99.90;;;;;;5031642;28;20014;-67
2022/07/13 07:45:13;;;;;;;2.42;1.58;;;12.50;99.90;;;;;;5038630;28;20036;-67
2022/07/13 07:47:40;;;;;;;1.60;1.08;;;12.50;99.90;;;;;;5036570;28;20041;-67
2022/07/13 07:50:08;;;;;;;2.78;1.60;;;12.60;99.90;;;;;;5038617;28;20017;-67
2022/07/13 07:52:36;;;;;;;3.72;0.93;;;12.50;99.90;;;;;;5024890;28;20046;-67
2022/07/13 07:55:03;;;;;;;2.63;1.15;;;12.50;99.90;;;;;;5018733;28;20029;-67
2022/07/13 07:57:31;;;;;;;2.33;1.50;;;12.50;99.90;;;;;;5019305;28;20034;-67
2022/07/13 07:59:58;;;;;;;1.52;0.80;;;12.50;99.90;;;;;;5019049;28;20011;-67
2022/07/13 08:02:25;;;;;;;2.88;1.75;;;12.50;99.90;;;;;;5019294;28;20038;-66
2022/07/13 08:04:52;;;;;;;2.78;1.90;;;12.50;99.90;;;;;;5018812;28;20006;-66
2022/07/13 08:07:20;;;;;;;2.38;1.60;;;12.40;99.90;;;;;;5027644;28;20026;-66
2022/07/13 08:09:47;;;;;;;2.33;1.45;;;12.40;99.90;;;;;;5038374;28;20006;-67
2022/07/13 08:12:14;;;;;;;2.70;1.60;;;12.40;99.90;;;;;;5027974;28;20017;-67
2022/07/13 08:14:42;;;;;;;2.08;1.35;;;12.40;99.90;;;;;;5018349;28;20018;-67
2022/07/13 08:17:10;;;;;;;2.25;1.25;;;12.40;99.90;;;;;;5026642;28;20098;-67
2022/07/13 08:19:37;;;;;;;2.25;1.17;;;12.30;99.90;;;;;;5038585;28;20021;-67
2022/07/13 08:22:04;;;;;;;1.65;0.98;;;12.20;99.90;;;;;;5032791;28;20030;-67
2022/07/13 08:24:31;;;;;;;2.47;0.80;;;12.20;99.90;;;;;;5035800;28;20018;-66
2022/07/13 08:26:58;;;;;;;2.88;1.65;;;12.10;99.90;;;;;;5025178;28;20010;-67
2022/07/13 08:29:26;;;;;;;2.90;1.33;;;12.00;99.90;;;;;;5018412;28;20110;-67
2022/07/13 08:31:53;;;;;;;2.38;1.17;;;11.90;99.90;;;;;;5025127;28;20037;-66
2022/07/13 08:40:13;;;;;;;2.63;1.00;;;11.80;99.90;;;;;;4997875;28;20030;-67
2022/07/13 08:42:40;;;;;;;3.92;1.85;;;11.70;99.90;;;;;;5021853;28;20034;-67
2022/07/13 08:45:08;;;;;;;2.95;0.95;;;11.70;99.90;;;;;;5037561;28;20009;-67
2022/07/13 08:47:37;;;;;;;1.58;0.82;;;11.70;99.90;;;;;;5025621;28;20038;-68
2022/07/13 08:50:06;;;;;;;4.45;2.05;;;11.70;99.90;;;;;;5018485;28;20030;-67
2022/07/13 08:52:36;;;;;;;4.53;1.17;;;11.60;99.90;;;;;;5029336;28;20029;-67
2022/07/13 08:55:05;;;;;;;2.80;0.80;;;11.60;99.90;;;;;;5037850;28;20029;-67
2022/07/13 08:57:38;;;;;;;2.20;0.93;;;11.60;99.90;;;;;;5036672;28;20078;-67
2022/07/13 09:00:09;;;;;;;2.17;1.23;;;11.60;99.90;;;;;;5038057;28;20014;-67
2022/07/13 09:02:36;;;;;;;5.07;1.00;;;11.70;99.90;;;;;;5037024;28;20022;-67
2022/07/13 09:05:09;;;;;;;2.00;0.80;;;11.60;99.90;;;;;;5037642;28;20034;-67
2022/07/13 09:07:37;;;;;;;2.38;1.23;;;11.60;99.90;;;;;;5036340;28;20077;-66
2022/07/13 09:10:05;;;;;;;3.13;1.45;;;11.60;99.90;;;;;;5037804;28;20053;-66
2022/07/13 09:12:33;;;;;;;2.60;0.90;;;11.70;99.90;;;;;;5025505;28;20050;-67
2022/07/13 09:15:06;;;;;;;2.70;0.77;;;11.70;99.90;;;;;;5020787;28;20041;-66
2022/07/13 09:17:40;;;;;;;3.30;1.88;;;11.70;99.90;;;;;;5031961;28;20061;-67
2022/07/13 09:20:10;;;;;;;3.85;2.33;;;11.70;99.90;;;;;;5021366;28;20003;-67
2022/07/13 09:22:53;;;;;;;4.38;1.75;;;11.70;99.90;;;;;;5021570;28;20022;-66
2022/07/13 09:25:32;;;;;;;4.68;2.67;;;11.70;99.90;;;;;;5040794;28;20018;-67
2022/07/13 09:28:07;;;;;;;6.60;3.65;;;11.70;99.90;;;;;;5022075;28;20045;-67
2022/07/13 09:30:36;;;;;;;7.53;3.20;;;11.70;99.90;;;;;;5021669;28;20017;-66
2022/07/13 09:33:04;;;;;;;7.75;3.78;;;11.60;99.90;;;;;;5022624;28;20029;-67
2022/07/13 09:35:51;;;;;;;8.40;3.85;;;11.60;99.90;;;;;;5021612;28;20030;-66
2022/07/13 09:38:33;;;;;;;2.38;1.50;;;11.60;99.90;;;;;;5021767;28;20014;-67
2022/07/13 09:41:17;;;;;;;1.40;0.82;;;11.50;99.90;;;;;;5021432;28;20025;-67
2022/07/13 09:47:02;;;;;;;7.68;5.30;;;11.50;99.90;;;;;;5020966;28;20057;-67
2022/07/13 09:49:43;;;;;;;4.78;3.03;;;11.40;99.90;;;;;;5021222;28;20046;-67
2022/07/13 09:52:12;;;;;;;3.70;2.42;;;11.40;99.90;;;;;;5021350;28;20048;-67
2022/07/13 09:54:44;;;;;;;2.42;1.27;;;11.30;99.90;;;;;;5021268;28;20019;-67
2022/07/13 09:57:17;;;;;;;1.75;1.17;;;11.30;99.90;;;;;;5028972;28;20026;-67
2022/07/13 09:59:45;;;;;;;2.47;1.38;;;11.20;99.90;;;;;;5040834;28;20033;-67
2022/07/13 10:02:14;;;;;;;4.93;1.90;;;11.10;99.90;;;;;;5031097;28;20023;-67
2022/07/13 10:04:41;;;;;;;3.13;2.10;;;11.20;99.90;;;;;;5026247;28;20014;-68
2022/07/13 10:07:11;;;;;;;5.85;3.17;;;11.10;99.90;;;;;;5022485;28;20011;-67
2022/07/13 10:09:39;;;;;;;4.78;2.58;;;11.00;99.90;;;;;;5025593;28;20029;-67
2022/07/13 10:12:08;;;;;;;5.15;2.28;;;11.00;99.90;;;;;;5029180;28;20029;-67
2022/07/13 10:14:37;;;;;;;5.05;2.28;;;11.00;99.90;;;;;;5039980;28;20065;-67
2022/07/13 10:17:14;;;;;;;3.45;2.33;;;10.90;99.90;;;;;;5031527;28;20018;-67
2022/07/13 10:19:50;;;;;;;6.22;3.72;;;10.90;99.90;;;;;;5021133;28;20034;-67
2022/07/13 10:22:23;;;;;;;7.45;5.95;;;11.00;99.90;;;;;;5029938;28;20022;-67
2022/07/13 10:24:56;;;;;;;4.57;3.80;;;10.90;99.90;;;;;;5020737;28;20033;-67
2022/07/13 10:27:28;;;;;;;2.92;1.67;;;10.80;99.90;;;;;;5021337;28;20019;-67
2022/07/13 10:29:58;;;;;;;5.70;2.45;;;10.70;99.90;;;;;;5023542;28;20037;-67
2022/07/13 10:32:31;;;;;;;6.60;3.03;;;10.60;99.90;;;;;;5031019;28;20010;-67
2022/07/13 10:35:06;;;;;;;4.10;2.55;;;10.60;99.90;;;;;;5038971;28;20018;-66
2022/07/13 10:38:00;;;;;;;3.55;2.17;;;10.60;99.90;;;;;;5027468;28;20018;-66
2022/07/13 10:40:33;;;;;;;5.72;2.20;;;10.70;99.90;;;;;;5020575;28;20078;-67
2022/07/13 10:43:06;;;;;;;2.88;1.77;;;10.70;99.90;;;;;;5020946;28;20045;-66
2022/07/13 10:45:38;;;;;;;3.45;2.10;;;10.60;99.90;;;;;;5020517;28;20089;-66
2022/07/13 10:48:31;;;;;;;4.03;1.63;;;10.50;99.90;;;;;;5021524;28;20053;-66
2022/07/13 10:51:00;;;;;;;5.13;1.92;;;10.30;99.90;;;;;;5020013;28;20073;-66
2022/07/13 10:53:45;;;;;;;3.05;1.70;;;10.40;99.90;;;;;;5020494;28;20018;-66
2022/07/13 10:56:20;;;;;;;3.72;1.63;;;10.30;99.90;;;;;;5020696;28;20021;-66
2022/07/13 10:58:49;;;;;;;5.28;3.17;;;10.30;99.90;;;;;;5039763;28;20049;-66
2022/07/13 11:01:36;;;;;;;4.78;2.30;;;10.20;99.90;;;;;;5038494;28;20028;-66
2022/07/13 11:04:08;;;;;;;6.30;2.05;;;10.20;99.90;;;;;;5039674;28;20023;-66
2022/07/13 11:06:36;;;;;;;3.35;2.00;;;10.30;99.90;;;;;;5038611;28;20141;-66
2022/07/13 11:09:11;;;;;;;4.90;2.13;;;10.30;99.90;;;;;;5038989;28;20034;-66
2022/07/13 11:11:46;;;;;;;;;;;10.30;99.90;;;;;;5035235;28;20015;-66
2022/07/13 11:14:41;;;;;;;2.75;2.00;;;10.30;99.90;;;;;;5019772;28;19901;-66
2022/07/13 11:17:11;;;;;;;;;;;10.30;99.90;;;;;;5019911;28;20014;-66
2022/07/13 11:20:07;;;;;;;3.38;1.77;;;10.30;99.90;;;;;;5035564;28;19898;-66
2022/07/13 11:25:39;;;;;;;5.55;2.42;;;10.40;99.90;;;;;;5019645;28;20048;-66
2022/07/13 11:28:28;;;;;;;5.35;3.47;;;10.30;99.90;;;;;;5035871;28;20057;-66
2022/07/13 11:30:55;;;;;;;5.07;2.97;;;10.30;99.90;;;;;;5039050;28;20052;-66
2022/07/13 11:33:23;;;;;;;5.18;2.95;;;10.40;99.90;;;;;;5020138;28;20019;-66
2022/07/13 11:35:51;;;;;;;4.38;2.85;;;10.30;99.90;;;;;;5019175;28;20011;-66
2022/07/13 11:38:20;;;;;;;4.70;2.47;;;10.40;99.90;;;;;;5037143;28;20010;-66
2022/07/13 11:40:48;;;;;;;3.40;2.38;;;10.30;99.90;;;;;;5034672;28;20007;-66
2022/07/13 11:43:15;;;;;;;2.85;2.00;;;10.40;99.90;;;;;;5034214;28;20024;-66
2022/07/13 11:45:43;;;;;;;5.00;2.50;;;10.40;99.90;;;;;;5023121;28;20018;-66
2022/07/13 11:48:15;;;;;;;5.45;3.17;;;10.40;99.90;;;;;;5034019;28;20044;-66
2022/07/13 11:50:48;;;;;;;5.32;2.47;;;10.30;99.90;;;;;;5038879;28;20077;-66
2022/07/13 11:53:30;;;;;;;6.18;2.70;;;10.30;99.90;;;;;;5019888;28;20022;-66
2022/07/13 11:56:03;;;;;;;3.83;2.22;;;10.30;99.90;;;;;;5018935;28;20007;-66
2022/07/13 11:58:33;;;;;;;3.70;2.40;;;10.30;99.90;;;;;;5037516;28;20014;-66
2022/07/13 12:01:10;;;;;;;6.78;2.65;;;10.30;99.90;;;;;;5038476;28;20026;-66
2022/07/13 12:03:37;;;;;;;3.00;2.55;;;10.30;99.90;;;;;;5018823;28;20014;-67
2022/07/13 12:06:07;;;;;;;4.22;3.05;;;10.30;99.90;;;;;;5018424;28;20006;-66
2022/07/13 12:08:40;;;;;;;3.97;2.50;;;10.30;99.90;;;;;;5038209;28;20085;-66
2022/07/13 12:11:09;;;;;;;4.25;2.95;;;10.30;99.90;;;;;;5037505;28;20021;-66
2022/07/13 12:13:39;;;;;;;3.05;2.35;;;10.20;99.90;;;;;;5038377;28;20017;-66
2022/07/13 12:16:09;;;;;;;3.50;2.40;;;10.20;99.90;;;;;;5037758;28;20010;-66
2022/07/13 12:18:56;;;;;;;4.70;2.72;;;10.20;99.90;;;;;;5018858;28;20027;-66
2022/07/13 12:21:23;;;;;;;3.10;2.53;;;10.20;99.90;;;;;;5018704;28;20014;-67
2022/07/13 12:23:51;;;;;;;3.90;2.72;;;10.20;99.90;;;;;;5018030;28;20026;-66
2022/07/13 12:26:18;;;;;;;3.97;2.92;;;10.10;99.90;;;;;;5022678;28;20014;-66
2022/07/13 12:28:46;;;;;;;3.30;2.92;;;10.10;99.90;;;;;;5018640;28;20026;-67
2022/07/13 12:31:13;;;;;;;4.80;2.60;;;10.20;99.90;;;;;;5018459;28;20062;-66
2022/07/13 12:33:46;;;;;;;3.75;2.30;;;10.20;99.90;;;;;;5018435;28;20063;-66
2022/07/13 12:36:14;;;;;;;4.18;3.05;;;10.10;99.90;;;;;;5025342;28;20025;-66
2022/07/13 12:38:54;;;;;;;3.42;2.25;;;10.20;99.90;;;;;;5017540;28;20032;-66
2022/07/13 12:41:27;;;;;;;3.28;1.92;;;10.20;99.90;;;;;;5020008;28;20057;-66
2022/07/13 12:43:59;;;;;;;3.30;2.47;;;10.20;99.90;;;;;;5038094;28;20010;-66
2022/07/13 12:46:43;;;;;;;2.83;2.20;;;10.10;99.90;;;;;;5033226;28;20010;-67
2022/07/13 12:49:10;;;;;;;3.55;2.45;;;10.10;99.90;;;;;;5018158;28;20045;-67
2022/07/13 12:51:51;;;;;;;3.67;2.20;;;10.20;99.90;;;;;;5018502;28;20011;-67
2022/07/13 12:54:37;;;;;;;3.33;2.47;;;10.20;99.90;;;;;;5018242;28;20015;-67
2022/07/13 12:57:10;;;;;;;5.10;2.45;;;10.20;99.90;;;;;;5026357;28;20034;-68
2022/07/13 12:59:38;;;;;;;3.85;2.00;;;10.20;99.90;;;;;;5042116;28;20093;-67
2022/07/13 13:02:06;;;;;;;4.40;2.10;;;10.20;99.90;;;;;;5033092;28;20010;-67
2022/07/13 13:04:33;;;;;;;4.75;2.60;;;10.20;99.90;;;;;;5022178;28;20084;-67
2022/07/13 13:07:00;;;;;;;4.72;2.60;;;10.20;99.90;;;;;;5022548;28;20030;-67
2022/07/13 13:09:28;;;;;;;3.55;2.20;;;10.20;99.90;;;;;;5022095;28;20045;-66
2022/07/13 13:11:55;;;;;;;2.83;2.10;;;10.20;99.90;;;;;;5022646;28;20022;-67